Time;durP1;ratioP1;P1;durP2;ratioP2;P2;SDS_P1;SDS_P2;PMS_P1;PMS_P2;Temp;Humidity;BMP_temperature;BMP_pressure;BME280_temperature;BME280_humidity;BME280_pressure;Samples;Min_cycle;Max_cycle;Signal;HPM_P1;HPM_P2
2022/11/01 00:00:50;;;;;;;22.20;11.40;;;13.00;99.90;;;;;;4953519;28;20066;-92
2022/11/01 00:03:16;;;;;;;18.75;11.07;;;13.10;99.90;;;;;;4959631;28;20090;-92
2022/11/01 00:05:44;;;;;;;19.25;11.27;;;13.00;99.90;;;;;;4958922;28;20058;-92
2022/11/01 00:08:09;;;;;;;17.08;9.75;;;13.10;99.90;;;;;;4977845;28;20029;-92
2022/11/01 00:10:35;;;;;;;21.88;11.05;;;13.10;99.90;;;;;;4960627;28;20031;-89
2022/11/01 00:13:00;;;;;;;18.50;9.95;;;13.10;99.90;;;;;;4975825;28;20054;-91
2022/11/01 00:15:26;;;;;;;20.05;10.80;;;13.20;99.90;;;;;;4960441;28;20046;-92
2022/11/01 00:17:52;;;;;;;16.58;10.18;;;13.10;99.90;;;;;;4960093;28;20039;-92
2022/11/01 00:20:17;;;;;;;19.15;9.60;;;13.10;99.90;;;;;;4985761;28;20108;-91
2022/11/01 00:22:43;;;;;;;17.77;9.98;;;13.10;99.90;;;;;;4974680;28;20049;-90
2022/11/01 00:25:09;;;;;;;20.70;10.27;;;13.20;99.90;;;;;;4943808;28;20127;-92
2022/11/01 00:27:34;;;;;;;18.17;10.13;;;13.20;99.90;;;;;;4939705;28;20077;-91
2022/11/01 00:30:00;;;;;;;17.77;9.75;;;13.20;99.90;;;;;;4950215;28;20023;-92
2022/11/01 00:32:25;;;;;;;17.08;9.55;;;13.20;99.90;;;;;;4960839;28;20050;-91
2022/11/01 00:34:51;;;;;;;18.35;9.80;;;13.20;99.90;;;;;;4977973;28;20368;-91
2022/11/01 00:37:17;;;;;;;19.05;9.20;;;13.30;99.90;;;;;;4962714;28;20054;-92
2022/11/01 00:39:42;;;;;;;17.67;9.30;;;13.60;99.90;;;;;;4981929;28;20027;-91
2022/11/01 00:42:08;;;;;;;18.42;9.48;;;13.30;99.90;;;;;;4981361;28;20058;-92
2022/11/01 00:44:34;;;;;;;17.80;9.52;;;13.30;99.90;;;;;;4980742;28;20196;-91
2022/11/01 00:46:59;;;;;;;15.18;9.63;;;13.30;99.90;;;;;;4964566;28;20065;-92
2022/11/01 00:49:25;;;;;;;16.83;9.35;;;13.30;99.90;;;;;;4979208;28;20026;-92
2022/11/01 00:51:51;;;;;;;17.85;9.70;;;13.40;99.90;;;;;;4964591;28;20049;-92
2022/11/01 00:54:16;;;;;;;15.75;9.80;;;13.40;99.90;;;;;;4965524;28;20050;-91
2022/11/01 00:56:42;;;;;;;19.25;9.70;;;13.50;99.90;;;;;;4962532;28;20038;-92
2022/11/01 00:59:07;;;;;;;15.43;9.25;;;13.50;99.90;;;;;;4965403;28;20038;-93
2022/11/01 01:01:33;;;;;;;19.25;9.13;;;13.50;99.90;;;;;;4979868;28;20050;-92
2022/11/01 01:03:59;;;;;;;18.98;9.32;;;13.60;99.90;;;;;;4965956;28;20047;-92
2022/11/01 01:06:24;;;;;;;16.75;8.93;;;13.60;99.90;;;;;;4965439;28;20031;-92
2022/11/01 01:08:50;;;;;;;14.68;8.68;;;13.60;99.90;;;;;;4996750;28;20031;-92
2022/11/01 01:11:16;;;;;;;12.45;8.35;;;13.60;99.90;;;;;;4964881;28;20081;-92
2022/11/01 01:13:41;;;;;;;17.15;8.65;;;13.60;99.90;;;;;;4993407;28;20031;-91
2022/11/01 01:16:11;;;;;;;12.40;8.43;;;13.60;99.90;;;;;;4965370;28;20046;-92
2022/11/01 01:18:37;;;;;;;18.00;8.52;;;13.70;99.90;;;;;;5008794;28;20042;-91
2022/11/01 01:21:04;;;;;;;16.35;8.50;;;13.70;99.90;;;;;;4976782;28;20644;-92
2022/11/01 01:23:30;;;;;;;16.17;8.77;;;13.70;99.90;;;;;;4974541;28;20098;-92
2022/11/01 01:25:56;;;;;;;15.30;8.05;;;13.80;99.90;;;;;;4959618;28;20055;-92
2022/11/01 01:28:22;;;;;;;10.55;7.85;;;13.90;99.90;;;;;;4974575;28;20125;-92
2022/11/01 01:30:48;;;;;;;18.02;8.50;;;13.90;99.90;;;;;;4973461;28;20050;-92
2022/11/01 01:33:13;;;;;;;14.55;7.80;;;14.00;99.90;;;;;;4958751;28;20047;-92
2022/11/01 01:35:39;;;;;;;16.38;8.65;;;14.00;99.90;;;;;;4958653;28;20053;-92
2022/11/01 01:38:08;;;;;;;28.15;8.77;;;14.10;99.90;;;;;;4957437;28;20480;-92
2022/11/01 01:40:34;;;;;;;15.88;8.43;;;14.00;99.90;;;;;;4971620;28;20038;-92
2022/11/01 01:42:59;;;;;;;14.85;8.10;;;14.10;99.90;;;;;;4956991;28;20042;-92
2022/11/01 01:45:35;;;;;;;17.45;8.75;;;14.00;99.90;;;;;;4940859;28;20342;-93
2022/11/01 01:48:05;;;;;;;19.23;8.40;;;14.10;99.90;;;;;;4971369;28;20030;-92
2022/11/01 01:50:58;;;;;;;16.15;8.68;;;14.10;99.90;;;;;;4971782;28;20047;-92
2022/11/01 01:53:31;;;;;;;17.17;7.97;;;14.10;99.90;;;;;;4970182;28;20173;-92
2022/11/01 01:56:04;;;;;;;15.73;8.10;;;14.10;99.90;;;;;;4959662;28;20047;-92
2022/11/01 01:58:49;;;;;;;17.92;7.78;;;14.10;99.90;;;;;;4972810;28;20400;-92
2022/11/01 02:01:15;;;;;;;13.85;7.60;;;14.10;99.90;;;;;;4973832;28;20026;-93
2022/11/01 02:03:42;;;;;;;17.23;7.72;;;14.00;99.90;;;;;;4957331;28;20039;-92
2022/11/01 02:06:09;;;;;;;18.05;7.88;;;14.10;99.90;;;;;;4971847;28;20108;-92
2022/11/01 02:08:39;;;;;;;17.52;8.05;;;14.10;99.90;;;;;;4954115;28;20047;-92
2022/11/01 02:11:06;;;;;;;12.38;6.75;;;14.00;99.90;;;;;;4974704;28;20543;-92
2022/11/01 02:13:32;;;;;;;14.38;7.72;;;14.00;99.90;;;;;;4973537;28;20050;-93
2022/11/01 02:16:07;;;;;;;17.38;7.95;;;14.00;99.90;;;;;;4957716;28;20049;-92
2022/11/01 02:19:02;;;;;;;15.23;7.20;;;14.00;99.90;;;;;;4956499;28;20047;-92
2022/11/01 02:22:01;;;;;;;12.95;7.30;;;14.00;99.90;;;;;;4974627;28;20369;-92
2022/11/01 02:24:54;;;;;;;19.58;7.72;;;14.00;99.90;;;;;;4988339;28;20101;-92
2022/11/01 02:27:50;;;;;;;14.43;7.03;;;14.00;99.90;;;;;;4959523;28;20278;-92
2022/11/01 02:30:23;;;;;;;18.35;8.38;;;13.90;99.90;;;;;;4975379;28;20043;-92
2022/11/01 02:33:13;;;;;;;12.23;7.85;;;13.90;99.90;;;;;;4956743;28;20039;-92
2022/11/01 02:35:57;;;;;;;18.50;7.13;;;13.90;99.90;;;;;;4954435;28;20059;-92
2022/11/01 02:38:34;;;;;;;13.38;7.20;;;14.00;99.90;;;;;;4956863;28;20125;-92
2022/11/01 02:41:09;;;;;;;14.77;6.97;;;14.00;99.90;;;;;;4975162;28;20038;-92
2022/11/01 02:43:51;;;;;;;16.85;7.53;;;14.00;99.90;;;;;;4973391;28;20134;-92
2022/11/01 02:49:06;;;;;;;14.82;7.70;;;14.00;99.90;;;;;;4974032;28;20045;-92
2022/11/01 02:51:33;;;;;;;16.60;6.93;;;14.00;99.90;;;;;;4959663;28;20038;-92
2022/11/01 02:54:18;;;;;;;14.68;7.38;;;14.00;99.90;;;;;;4970943;28;20039;-92
2022/11/01 02:56:44;;;;;;;14.93;7.60;;;14.00;99.90;;;;;;4976912;28;20043;-92
2022/11/01 02:59:16;;;;;;;15.40;7.32;;;14.00;99.90;;;;;;4942797;28;20043;-92
2022/11/01 03:01:48;;;;;;;16.15;7.30;;;14.00;99.90;;;;;;4961184;28;20039;-92
2022/11/01 03:04:15;;;;;;;13.00;6.88;;;14.00;99.90;;;;;;4975248;28;20038;-93
2022/11/01 03:06:47;;;;;;;12.40;7.05;;;14.00;99.90;;;;;;4945012;28;20098;-91
2022/11/01 03:09:13;;;;;;;16.00;7.15;;;14.00;99.90;;;;;;4977199;28;20043;-92
2022/11/01 03:12:12;;;;;;;16.50;7.45;;;14.00;99.90;;;;;;4955951;28;20043;-92
2022/11/01 03:15:01;;;;;;;13.73;6.80;;;14.00;99.90;;;;;;4965109;28;20129;-91
2022/11/01 03:17:40;;;;;;;15.35;7.53;;;14.00;99.90;;;;;;4978050;28;20043;-92
2022/11/01 03:20:12;;;;;;;12.80;6.53;;;14.00;99.90;;;;;;4975686;28;20055;-91
2022/11/01 03:22:54;;;;;;;14.20;7.20;;;14.00;99.90;;;;;;4974874;28;20435;-92
2022/11/01 03:25:38;;;;;;;12.60;7.15;;;14.00;99.90;;;;;;4976918;28;20030;-91
2022/11/01 03:28:30;;;;;;;12.13;7.18;;;14.00;99.90;;;;;;4961112;28;20076;-92
2022/11/01 03:31:01;;;;;;;19.23;7.40;;;14.00;99.90;;;;;;4955978;28;20051;-92
2022/11/01 03:33:28;;;;;;;13.52;7.93;;;14.00;99.90;;;;;;4989324;28;20042;-92
2022/11/01 03:36:00;;;;;;;13.52;6.80;;;14.00;99.90;;;;;;4957973;28;20042;-92
2022/11/01 03:38:28;;;;;;;13.90;7.27;;;14.00;99.90;;;;;;4956074;28;20077;-91
2022/11/01 03:41:00;;;;;;;16.00;6.38;;;14.00;99.90;;;;;;4956198;28;20063;-91
2022/11/01 03:43:29;;;;;;;13.90;6.63;;;14.00;99.90;;;;;;4958766;28;20045;-92
2022/11/01 03:45:55;;;;;;;9.85;5.95;;;14.00;99.90;;;;;;4959095;28;20031;-91
2022/11/01 03:48:20;;;;;;;16.08;7.18;;;14.00;99.90;;;;;;4959182;28;20085;-91
2022/11/01 03:50:51;;;;;;;10.35;6.30;;;14.00;99.90;;;;;;4943626;28;20117;-91
2022/11/01 03:53:17;;;;;;;13.98;6.13;;;14.00;99.90;;;;;;4953891;28;20046;-92
2022/11/01 03:55:43;;;;;;;12.30;6.30;;;13.90;99.90;;;;;;4972085;28;20035;-92
2022/11/01 03:58:09;;;;;;;14.05;6.20;;;13.90;99.90;;;;;;4956721;28;20047;-92
2022/11/01 04:00:43;;;;;;;14.77;6.30;;;13.80;99.90;;;;;;4972547;28;20069;-92
2022/11/01 04:03:10;;;;;;;13.38;6.25;;;13.80;99.90;;;;;;4971553;28;20130;-92
2022/11/01 04:05:38;;;;;;;13.65;6.65;;;13.80;99.90;;;;;;4940885;28;20035;-91
2022/11/01 04:08:04;;;;;;;9.77;5.57;;;13.70;99.90;;;;;;4955570;28;20114;-91
2022/11/01 04:10:31;;;;;;;16.90;6.00;;;13.70;99.90;;;;;;4958585;28;20108;-91
2022/11/01 04:12:57;;;;;;;15.82;6.15;;;13.70;99.90;;;;;;4958611;28;20039;-91
2022/11/01 04:21:16;;;;;;;15.15;6.22;;;13.70;99.90;;;;;;4986174;28;20074;-91
2022/11/01 04:23:43;;;;;;;10.90;5.68;;;13.70;99.90;;;;;;4956108;28;20034;-92
2022/11/01 04:26:15;;;;;;;15.00;6.20;;;13.70;99.90;;;;;;4956238;28;20050;-90
2022/11/01 04:28:43;;;;;;;15.48;6.47;;;13.70;99.90;;;;;;4953331;28;20035;-91
2022/11/01 04:31:09;;;;;;;13.25;6.05;;;13.80;99.90;;;;;;4957194;28;20038;-91
2022/11/01 04:33:35;;;;;;;11.57;6.13;;;13.80;99.90;;;;;;4972370;28;20125;-91
2022/11/01 04:36:07;;;;;;;11.73;5.40;;;13.80;99.90;;;;;;4971676;28;20066;-91
2022/11/01 04:38:33;;;;;;;10.05;5.60;;;13.80;99.90;;;;;;4956541;28;20141;-91
2022/11/01 04:40:59;;;;;;;15.48;6.10;;;13.80;99.90;;;;;;4970648;28;20070;-91
2022/11/01 04:43:24;;;;;;;11.18;5.95;;;13.80;99.90;;;;;;4972156;28;20030;-90
2022/11/01 04:45:54;;;;;;;9.32;5.60;;;14.00;99.90;;;;;;4956446;28;20045;-90
2022/11/01 04:48:20;;;;;;;13.60;5.80;;;14.10;99.90;;;;;;4969133;28;20043;-91
2022/11/01 04:50:46;;;;;;;14.93;6.47;;;14.20;99.90;;;;;;4940587;28;20041;-91
2022/11/01 04:53:12;;;;;;;12.07;5.78;;;14.30;99.90;;;;;;4966574;28;20054;-90
2022/11/01 04:55:38;;;;;;;9.77;5.55;;;14.50;99.90;;;;;;4953734;28;20128;-89
2022/11/01 04:58:05;;;;;;;10.25;5.45;;;14.50;99.90;;;;;;4985705;28;20433;-90
2022/11/01 05:00:31;;;;;;;11.48;5.00;;;14.30;99.90;;;;;;4949676;28;20117;-90
2022/11/01 05:03:06;;;;;;;9.00;5.07;;;14.70;99.90;;;;;;4955054;28;20038;-89
2022/11/01 05:05:33;;;;;;;10.75;5.68;;;14.70;99.90;;;;;;4969529;28;20034;-90
2022/11/01 05:08:00;;;;;;;9.90;4.97;;;14.90;99.90;;;;;;4955054;28;20047;-90
2022/11/01 05:10:26;;;;;;;9.15;5.15;;;15.00;99.90;;;;;;4954061;28;20043;-89
2022/11/01 05:12:51;;;;;;;11.65;5.03;;;15.00;99.90;;;;;;4968338;28;20035;-91
2022/11/01 05:15:17;;;;;;;10.00;5.90;;;15.00;99.90;;;;;;4935956;28;20049;-90
2022/11/01 05:17:43;;;;;;;9.25;5.60;;;15.00;99.90;;;;;;4939062;28;20425;-90
2022/11/01 05:20:09;;;;;;;8.95;5.25;;;15.00;99.90;;;;;;4954649;28;20421;-91
2022/11/01 05:22:35;;;;;;;9.07;5.15;;;15.10;99.90;;;;;;4969814;28;20144;-90
2022/11/01 05:25:01;;;;;;;10.15;4.90;;;15.10;99.90;;;;;;4960753;28;20428;-91
2022/11/01 05:27:26;;;;;;;12.18;5.13;;;15.20;99.90;;;;;;4970760;28;20488;-90
2022/11/01 05:29:52;;;;;;;11.00;4.65;;;15.20;99.90;;;;;;4960196;28;20089;-91
2022/11/01 05:32:18;;;;;;;8.00;5.03;;;15.20;99.90;;;;;;4957801;28;20047;-90
2022/11/01 05:34:45;;;;;;;8.60;4.50;;;15.20;99.90;;;;;;4958346;28;20047;-91
2022/11/01 05:37:11;;;;;;;12.27;5.15;;;15.30;99.90;;;;;;4971883;28;20046;-90
2022/11/01 05:39:37;;;;;;;11.50;5.53;;;15.30;99.90;;;;;;4971899;28;20102;-91
2022/11/01 05:42:02;;;;;;;8.43;4.35;;;15.30;99.90;;;;;;4956678;28;20058;-91
2022/11/01 05:44:28;;;;;;;9.77;4.75;;;15.40;99.90;;;;;;4943129;28;20118;-91
2022/11/01 05:46:54;;;;;;;9.77;4.90;;;15.40;99.90;;;;;;4935718;28;20593;-91
2022/11/01 05:49:21;;;;;;;9.55;4.65;;;15.40;99.90;;;;;;4945944;28;20046;-90
2022/11/01 05:51:47;;;;;;;9.00;4.75;;;15.50;99.90;;;;;;4953121;28;20123;-91
2022/11/01 05:54:13;;;;;;;8.52;5.03;;;15.60;99.90;;;;;;4972192;28;20126;-89
2022/11/01 05:56:38;;;;;;;8.80;4.68;;;15.60;99.90;;;;;;4959719;28;20488;-90
2022/11/01 05:59:04;;;;;;;13.02;5.03;;;15.60;99.90;;;;;;4958570;28;20523;-90
2022/11/01 06:01:29;;;;;;;8.20;4.28;;;15.60;99.90;;;;;;4938453;28;20126;-90
2022/11/01 06:04:00;;;;;;;8.20;4.22;;;15.60;99.90;;;;;;4958643;28;20042;-90
2022/11/01 06:06:27;;;;;;;9.48;4.28;;;15.60;99.90;;;;;;4956699;28;20065;-88
2022/11/01 06:08:54;;;;;;;9.35;4.38;;;15.50;99.90;;;;;;4939929;28;20047;-90
2022/11/01 06:11:19;;;;;;;10.27;4.30;;;15.50;99.90;;;;;;4958462;28;20097;-90
2022/11/01 06:13:45;;;;;;;9.82;4.05;;;15.50;99.90;;;;;;4942342;28;20042;-90
2022/11/01 06:16:11;;;;;;;7.90;4.38;;;15.50;99.90;;;;;;4955174;28;20488;-90
2022/11/01 06:18:37;;;;;;;9.98;4.60;;;15.40;99.90;;;;;;4952064;28;20042;-89
2022/11/01 06:21:03;;;;;;;7.07;4.20;;;15.40;99.90;;;;;;4939620;28;20046;-90
2022/11/01 06:23:28;;;;;;;7.07;3.70;;;15.40;99.90;;;;;;4955058;28;20035;-90
2022/11/01 06:26:01;;;;;;;8.13;2.95;;;15.30;99.90;;;;;;4955334;28;20416;-90
2022/11/01 06:28:27;;;;;;;8.63;2.53;;;15.20;99.90;;;;;;4939541;28;20030;-91
2022/11/01 06:30:52;;;;;;;3.72;2.05;;;15.10;99.90;;;;;;4969461;28;20547;-88
2022/11/01 06:33:18;;;;;;;6.95;2.20;;;15.10;99.90;;;;;;4951110;28;20037;-87
2022/11/01 06:35:44;;;;;;;7.55;1.80;;;15.10;99.90;;;;;;4964993;28;20101;-84
2022/11/01 06:38:09;;;;;;;6.15;1.58;;;15.00;99.90;;;;;;4969347;28;20049;-86
2022/11/01 06:40:36;;;;;;;3.38;1.73;;;14.90;99.90;;;;;;4953579;28;20130;-84
2022/11/01 06:43:04;;;;;;;2.78;1.60;;;14.90;99.90;;;;;;4955070;28;20035;-85
2022/11/01 06:45:31;;;;;;;6.35;1.58;;;14.80;99.90;;;;;;4950693;28;20042;-85
2022/11/01 06:47:57;;;;;;;5.72;1.58;;;14.70;99.90;;;;;;4968314;28;20039;-85
2022/11/01 06:50:23;;;;;;;2.45;1.27;;;14.70;99.90;;;;;;4958022;28;20042;-84
2022/11/01 06:52:49;;;;;;;3.55;1.60;;;14.60;99.90;;;;;;4953526;28;20039;-86
2022/11/01 06:55:15;;;;;;;3.00;1.42;;;14.50;99.90;;;;;;4970352;28;20089;-85
2022/11/01 06:57:41;;;;;;;2.72;1.52;;;14.40;99.90;;;;;;4968080;28;20456;-85
2022/11/01 07:00:11;;;;;;;3.63;1.50;;;14.40;99.90;;;;;;4954754;28;20079;-86
2022/11/01 07:02:36;;;;;;;5.35;2.40;;;14.30;99.90;;;;;;4965904;28;20495;-86
2022/11/01 07:05:02;;;;;;;5.22;1.50;;;14.20;99.90;;;;;;4953406;28;21262;-85
2022/11/01 07:07:28;;;;;;;2.65;1.33;;;14.20;99.90;;;;;;4952406;28;20045;-85
2022/11/01 07:09:53;;;;;;;3.22;1.40;;;14.10;99.90;;;;;;4967477;28;20402;-83
2022/11/01 07:12:19;;;;;;;3.75;1.48;;;14.10;99.90;;;;;;4952883;28;20046;-86
2022/11/01 07:14:45;;;;;;;4.30;1.58;;;14.00;99.90;;;;;;4938570;28;20038;-86
2022/11/01 07:17:11;;;;;;;2.97;1.30;;;14.00;99.90;;;;;;4936462;28;20109;-85
2022/11/01 07:19:36;;;;;;;3.95;1.60;;;13.90;99.90;;;;;;4946231;28;20055;-86
2022/11/01 07:22:02;;;;;;;3.72;1.80;;;13.80;99.90;;;;;;4936862;28;20042;-86
2022/11/01 07:24:28;;;;;;;2.03;1.40;;;13.80;99.90;;;;;;4936745;28;20369;-86
2022/11/01 07:26:53;;;;;;;1.65;1.30;;;13.80;99.90;;;;;;4952777;28;20039;-85
2022/11/01 07:29:19;;;;;;;2.92;1.70;;;13.80;99.90;;;;;;4932510;28;20039;-86
2022/11/01 07:31:46;;;;;;;3.47;1.35;;;13.70;99.90;;;;;;4953832;28;20138;-85
2022/11/01 07:34:12;;;;;;;2.05;1.35;;;13.70;99.90;;;;;;4932258;28;20412;-86
2022/11/01 07:36:38;;;;;;;9.35;1.50;;;13.80;99.90;;;;;;4952570;28;20058;-85
2022/11/01 07:39:04;;;;;;;2.45;1.10;;;13.70;99.90;;;;;;4950334;28;20515;-86
2022/11/01 07:41:30;;;;;;;1.67;1.20;;;13.70;99.90;;;;;;4965986;28;20109;-87
2022/11/01 07:43:56;;;;;;;3.83;1.30;;;13.80;99.90;;;;;;4967730;28;20038;-87
2022/11/01 07:46:21;;;;;;;3.47;1.40;;;13.80;99.90;;;;;;4963313;28;20703;-86
2022/11/01 07:48:47;;;;;;;3.95;1.00;;;13.80;99.90;;;;;;4950804;28;20046;-86
2022/11/01 07:51:13;;;;;;;5.57;1.70;;;13.60;99.90;;;;;;4938385;28;20042;-85
2022/11/01 07:53:38;;;;;;;3.70;1.33;;;13.90;99.90;;;;;;4947762;28;20039;-86
2022/11/01 07:56:06;;;;;;;3.78;1.25;;;13.90;99.90;;;;;;4952578;28;20039;-85
2022/11/01 07:58:32;;;;;;;3.85;1.40;;;13.90;99.90;;;;;;4960426;28;20480;-85
2022/11/01 08:00:59;;;;;;;4.38;1.40;;;13.90;99.90;;;;;;4966786;28;20038;-86
2022/11/01 08:03:25;;;;;;;6.65;1.83;;;13.90;99.90;;;;;;4936341;28;20284;-86
2022/11/01 08:05:51;;;;;;;6.57;1.90;;;13.90;99.90;;;;;;4967502;28;20034;-87
2022/11/01 08:08:17;;;;;;;6.88;1.83;;;13.90;99.90;;;;;;4936132;28;20101;-86
2022/11/01 08:10:42;;;;;;;4.40;1.50;;;14.00;99.90;;;;;;4962784;28;20049;-86
2022/11/01 08:13:23;;;;;;;8.38;2.42;;;13.90;99.90;;;;;;4935351;28;20059;-87
2022/11/01 08:15:51;;;;;;;7.72;2.33;;;13.90;99.90;;;;;;4958121;28;20064;-87
2022/11/01 08:18:20;;;;;;;4.88;1.70;;;13.90;99.90;;;;;;4955102;28;20035;-86
2022/11/01 08:20:46;;;;;;;10.23;2.22;;;13.90;99.90;;;;;;4967759;28;20086;-86
2022/11/01 08:23:11;;;;;;;7.18;2.00;;;13.90;99.90;;;;;;4953836;28;20097;-85
2022/11/01 08:25:37;;;;;;;10.23;2.30;;;13.90;99.90;;;;;;4946111;28;20556;-86
2022/11/01 08:28:05;;;;;;;5.72;1.65;;;14.10;99.90;;;;;;4959855;28;20043;-86
2022/11/01 08:30:32;;;;;;;7.05;2.10;;;14.20;99.90;;;;;;4964418;28;20035;-86
2022/11/01 08:33:02;;;;;;;8.13;1.65;;;14.20;99.90;;;;;;4963328;28;20117;-86
2022/11/01 08:35:28;;;;;;;9.75;1.85;;;14.20;99.90;;;;;;4957022;28;20119;-86
2022/11/01 08:37:54;;;;;;;11.77;2.30;;;14.20;99.90;;;;;;4964938;28;20039;-86
2022/11/01 08:40:20;;;;;;;8.27;2.35;;;14.10;99.90;;;;;;4967966;28;20030;-88
2022/11/01 08:42:46;;;;;;;9.05;2.00;;;14.20;99.90;;;;;;4964121;28;20035;-85
2022/11/01 08:45:12;;;;;;;8.73;2.15;;;14.20;99.90;;;;;;4959612;28;20452;-86
2022/11/01 08:47:39;;;;;;;14.15;2.67;;;14.20;99.90;;;;;;4951801;28;20039;-87
2022/11/01 08:50:06;;;;;;;8.35;2.60;;;14.20;99.90;;;;;;4943704;28;20036;-87
2022/11/01 08:52:32;;;;;;;10.65;2.63;;;14.20;99.90;;;;;;4964505;28;20038;-85
2022/11/01 08:54:57;;;;;;;10.13;2.10;;;14.20;99.90;;;;;;4953110;28;20050;-85
2022/11/01 08:57:23;;;;;;;13.23;2.45;;;14.20;99.90;;;;;;4950121;28;20074;-85
2022/11/01 08:59:49;;;;;;;12.25;2.70;;;14.20;99.90;;;;;;4943975;28;20069;-85
2022/11/01 09:02:14;;;;;;;6.38;2.22;;;14.30;99.90;;;;;;4935615;28;20039;-84
2022/11/01 09:04:41;;;;;;;12.70;2.88;;;14.30;99.90;;;;;;4963990;28;20046;-86
2022/11/01 09:07:07;;;;;;;10.35;2.20;;;14.40;99.90;;;;;;4956246;28;20043;-86
2022/11/01 09:09:33;;;;;;;10.65;2.65;;;14.50;99.90;;;;;;4961947;28;20077;-85
2022/11/01 09:11:58;;;;;;;15.35;3.40;;;14.60;99.90;;;;;;4929221;28;20070;-85
2022/11/01 09:14:25;;;;;;;7.45;2.50;;;14.60;99.90;;;;;;4955365;28;20039;-85
2022/11/01 09:16:51;;;;;;;15.38;3.00;;;14.70;99.90;;;;;;4931306;28;20038;-85
2022/11/01 09:19:17;;;;;;;13.52;2.33;;;14.70;99.90;;;;;;4965807;28;20090;-85
2022/11/01 09:21:43;;;;;;;11.25;3.35;;;14.70;99.90;;;;;;4962492;28;20049;-84
2022/11/01 09:24:14;;;;;;;9.68;2.50;;;14.70;99.90;;;;;;4955194;28;20039;-85
2022/11/01 09:26:40;;;;;;;13.10;3.50;;;14.70;99.90;;;;;;4981961;28;20122;-85
2022/11/01 09:29:06;;;;;;;17.48;2.70;;;14.70;99.90;;;;;;4951922;28;20081;-84
2022/11/01 09:31:32;;;;;;;12.25;2.63;;;14.90;99.90;;;;;;4951011;28;20070;-86
2022/11/01 09:33:59;;;;;;;7.95;2.35;;;15.00;99.90;;;;;;4956516;28;20043;-87
2022/11/01 09:36:27;;;;;;;9.95;2.70;;;14.90;99.90;;;;;;4953990;28;20468;-88
2022/11/01 09:38:53;;;;;;;12.88;2.78;;;14.90;99.90;;;;;;4968677;28;20493;-87
2022/11/01 09:41:37;;;;;;;11.70;2.33;;;14.90;99.90;;;;;;4968986;28;20069;-85
2022/11/01 09:44:05;;;;;;;5.60;2.22;;;14.80;99.90;;;;;;4967583;28;20034;-85
2022/11/01 09:46:43;;;;;;;8.93;2.38;;;14.70;99.90;;;;;;4968155;28;20058;-85
2022/11/01 09:49:15;;;;;;;9.80;2.45;;;14.70;99.90;;;;;;4971469;28;20054;-85
2022/11/01 09:51:41;;;;;;;13.85;2.97;;;14.70;99.90;;;;;;4963445;28;20519;-85
2022/11/01 09:54:09;;;;;;;13.57;2.63;;;14.60;99.90;;;;;;4956020;28;20038;-85
2022/11/01 09:56:49;;;;;;;13.07;2.92;;;14.70;99.90;;;;;;4954133;28;20039;-86
2022/11/01 09:59:39;;;;;;;8.60;2.80;;;14.60;99.90;;;;;;4963451;28;20046;-85
2022/11/01 10:02:53;;;;;;;9.95;2.85;;;14.60;99.90;;;;;;4951715;28;20039;-85
2022/11/01 10:05:30;;;;;;;11.90;2.47;;;14.60;99.90;;;;;;4951477;28;20089;-86
2022/11/01 10:08:06;;;;;;;8.45;2.88;;;14.60;99.90;;;;;;4951565;28;20056;-87
2022/11/01 10:10:54;;;;;;;9.45;2.20;;;14.60;99.90;;;;;;4968795;28;20043;-86
2022/11/01 10:13:41;;;;;;;14.00;2.88;;;14.60;99.90;;;;;;4971125;28;20049;-86
2022/11/01 10:16:42;;;;;;;10.90;2.60;;;14.70;99.90;;;;;;4967555;28;20132;-86
2022/11/01 10:19:16;;;;;;;10.25;2.67;;;14.70;99.90;;;;;;4966537;28;20071;-86
2022/11/01 10:21:47;;;;;;;10.48;2.47;;;14.70;99.90;;;;;;4964655;28;20062;-85
2022/11/01 10:24:25;;;;;;;13.25;3.38;;;14.70;99.90;;;;;;4957849;28;20122;-85
2022/11/01 10:27:06;;;;;;;12.27;2.83;;;14.70;99.90;;;;;;4952695;28;20051;-86
2022/11/01 10:29:49;;;;;;;13.40;2.72;;;14.70;99.90;;;;;;4966362;28;20050;-86
2022/11/01 10:32:44;;;;;;;7.13;2.65;;;14.70;99.90;;;;;;4965228;28;20039;-88
2022/11/01 10:35:16;;;;;;;9.68;2.70;;;14.70;99.90;;;;;;4967509;28;20030;-88
2022/11/01 10:37:57;;;;;;;13.18;2.55;;;14.70;99.90;;;;;;4966710;28;20039;-88
2022/11/01 10:40:44;;;;;;;13.57;2.97;;;14.70;99.90;;;;;;4964535;28;20027;-87
2022/11/01 10:43:14;;;;;;;12.32;2.95;;;14.70;99.90;;;;;;4969061;28;20168;-87
2022/11/01 10:45:43;;;;;;;14.18;3.22;;;14.80;99.90;;;;;;4962872;28;20035;-87
2022/11/01 10:48:18;;;;;;;12.82;3.10;;;14.80;99.90;;;;;;4966706;28;20050;-86
2022/11/01 10:50:44;;;;;;;8.95;2.40;;;14.80;99.90;;;;;;4980442;28;20050;-84
2022/11/01 10:53:11;;;;;;;17.67;2.97;;;14.80;99.90;;;;;;4968830;28;20467;-84
2022/11/01 10:55:54;;;;;;;10.90;2.53;;;14.80;99.90;;;;;;4952146;28;20058;-84
2022/11/01 10:58:56;;;;;;;13.63;2.97;;;14.80;99.90;;;;;;4981272;28;20490;-86
2022/11/01 11:01:25;;;;;;;16.75;3.17;;;14.80;99.90;;;;;;4966141;28;20061;-85
2022/11/01 11:03:53;;;;;;;14.30;3.42;;;14.90;99.90;;;;;;4945889;28;20035;-85
2022/11/01 11:06:19;;;;;;;13.27;3.25;;;14.90;99.90;;;;;;4968123;28;20097;-85
2022/11/01 11:08:50;;;;;;;14.43;2.95;;;15.00;99.90;;;;;;4953250;28;20043;-83
2022/11/01 11:11:35;;;;;;;12.05;3.05;;;15.00;99.90;;;;;;4964886;28;20034;-84
2022/11/01 11:14:05;;;;;;;9.00;3.25;;;15.10;99.90;;;;;;4953733;28;20125;-83
2022/11/01 11:16:45;;;;;;;12.00;3.08;;;15.20;99.90;;;;;;4952778;28;20645;-83
2022/11/01 11:19:21;;;;;;;8.13;2.80;;;15.30;99.90;;;;;;4953851;28;20138;-84
2022/11/01 11:21:50;;;;;;;13.13;2.60;;;15.30;99.90;;;;;;4978620;28;20049;-83
2022/11/01 11:24:29;;;;;;;11.27;2.47;;;15.30;99.90;;;;;;4953078;28;20042;-85
2022/11/01 11:26:56;;;;;;;10.95;2.72;;;15.40;99.90;;;;;;4954614;28;20082;-86
2022/11/01 11:29:36;;;;;;;11.50;3.10;;;15.30;99.90;;;;;;4980103;28;20503;-85
2022/11/01 11:32:05;;;;;;;14.63;4.07;;;15.30;99.90;;;;;;4969540;28;20046;-84
2022/11/01 11:34:36;;;;;;;16.88;3.20;;;15.30;99.90;;;;;;4969861;28;20041;-85
2022/11/01 11:37:04;;;;;;;12.68;3.03;;;15.30;99.90;;;;;;4972595;28;20074;-85
2022/11/01 11:39:36;;;;;;;13.52;2.92;;;15.40;99.90;;;;;;4958852;28;20031;-85
2022/11/01 11:42:13;;;;;;;18.38;3.22;;;15.50;99.90;;;;;;4960764;28;20420;-84
2022/11/01 11:44:45;;;;;;;15.98;3.03;;;15.60;99.90;;;;;;4968951;28;20408;-85
2022/11/01 11:47:35;;;;;;;11.48;2.97;;;15.70;99.90;;;;;;4964264;28;20113;-85
2022/11/01 11:50:18;;;;;;;15.57;2.72;;;15.80;99.90;;;;;;4966236;28;20235;-85
2022/11/01 11:52:48;;;;;;;10.60;2.45;;;15.80;99.90;;;;;;4973352;28;20034;-85
2022/11/01 11:55:52;;;;;;;12.70;2.83;;;15.80;99.90;;;;;;4957377;28;20038;-85
2022/11/01 11:58:27;;;;;;;11.45;3.08;;;15.90;99.90;;;;;;4980417;28;20096;-85
2022/11/01 12:01:03;;;;;;;10.68;2.72;;;16.00;99.90;;;;;;4956786;28;20038;-84
2022/11/01 12:03:42;;;;;;;14.30;2.70;;;16.00;99.90;;;;;;4974560;28;20040;-85
2022/11/01 12:06:08;;;;;;;13.52;2.75;;;16.00;99.90;;;;;;4968986;28;20054;-85
2022/11/01 12:08:44;;;;;;;14.52;3.28;;;16.00;99.90;;;;;;4939808;28;20506;-85
2022/11/01 12:11:10;;;;;;;9.75;2.58;;;16.00;99.90;;;;;;4957833;28;20026;-84
2022/11/01 12:13:40;;;;;;;13.70;2.72;;;16.10;99.90;;;;;;4972290;28;20038;-85
2022/11/01 12:16:24;;;;;;;13.73;2.60;;;16.10;99.90;;;;;;4957395;28;20054;-84
2022/11/01 12:18:58;;;;;;;9.65;3.20;;;16.20;99.90;;;;;;4956400;28;20117;-84
2022/11/01 12:21:33;;;;;;;10.77;2.45;;;16.30;99.90;;;;;;4953146;28;20039;-85
2022/11/01 12:24:26;;;;;;;10.25;2.42;;;16.30;99.90;;;;;;4970135;28;21192;-84
2022/11/01 12:26:56;;;;;;;13.38;2.65;;;16.30;99.90;;;;;;4961023;28;20078;-85
2022/11/01 12:29:31;;;;;;;13.60;2.72;;;16.00;99.90;;;;;;4967245;28;20034;-85
2022/11/01 12:32:05;;;;;;;8.95;2.17;;;16.30;99.90;;;;;;4972145;28;20058;-85
2022/11/01 12:34:38;;;;;;;16.80;2.90;;;16.30;99.90;;;;;;4998741;28;20054;-85
2022/11/01 12:37:15;;;;;;;9.05;2.30;;;16.40;99.90;;;;;;4966984;28;20323;-85
2022/11/01 12:39:43;;;;;;;7.70;2.47;;;16.40;99.90;;;;;;4975006;28;20113;-85
2022/11/01 12:42:17;;;;;;;13.45;2.90;;;16.40;99.90;;;;;;4960883;28;20086;-85
2022/11/01 12:44:50;;;;;;;9.95;2.42;;;16.40;99.90;;;;;;4978739;28;20045;-85
2022/11/01 12:47:51;;;;;;;7.55;2.05;;;16.40;99.90;;;;;;4956827;28;20129;-84
2022/11/01 12:50:33;;;;;;;12.43;2.10;;;16.40;99.90;;;;;;4958850;28;20117;-84
2022/11/01 12:53:07;;;;;;;8.40;2.20;;;16.40;99.90;;;;;;4969292;28;20043;-85
2022/11/01 12:55:40;;;;;;;10.60;2.63;;;16.50;99.90;;;;;;4950678;28;20089;-85
2022/11/01 12:58:13;;;;;;;7.93;1.70;;;16.40;99.90;;;;;;4968491;28;20050;-84
2022/11/01 13:00:57;;;;;;;8.80;2.00;;;16.50;99.90;;;;;;4964846;28;20094;-85
2022/11/01 13:03:58;;;;;;;6.53;1.98;;;16.60;99.90;;;;;;4953683;28;20760;-85
2022/11/01 13:06:48;;;;;;;9.90;2.47;;;16.60;99.90;;;;;;4951697;28;20074;-85